createdAt,value
2023-02-01T00:01:08.676Z,83.60
2023-02-01T00:03:35.639Z,83.60
2023-02-01T00:06:02.626Z,83.60
2023-02-01T00:08:29.703Z,83.60
2023-02-01T00:11:00.875Z,83.60
2023-02-01T00:13:30.584Z,83.50
2023-02-01T00:16:14.225Z,83.50
2023-02-01T00:18:43.389Z,83.50
2023-02-01T00:21:15.659Z,83.50
2023-02-01T00:23:42.772Z,83.40
2023-02-01T00:26:16.268Z,83.30
2023-02-01T00:28:46.165Z,83.30
2023-02-01T00:31:16.207Z,83.30
2023-02-01T00:33:43.136Z,83.10
2023-02-01T00:36:11.131Z,83.00
2023-02-01T00:38:39.322Z,83.00
2023-02-01T00:41:12.872Z,83.00
2023-02-01T00:43:44.955Z,83.00
2023-02-01T00:46:13.661Z,82.90
2023-02-01T00:48:41.467Z,82.90
2023-02-01T00:51:16.594Z,82.90
2023-02-01T00:53:43.553Z,82.90
2023-02-01T00:56:10.722Z,82.80
2023-02-01T00:58:37.810Z,82.70
2023-02-01T01:01:07.672Z,82.80
2023-02-01T01:03:36.508Z,82.60
2023-02-01T01:06:06.076Z,82.60
2023-02-01T01:08:33.497Z,82.60
2023-02-01T01:11:04.505Z,82.60
2023-02-01T01:13:31.354Z,82.60
2023-02-01T01:16:03.693Z,82.60
2023-02-01T01:18:31.917Z,83.40
2023-02-01T01:20:59.212Z,82.60
2023-02-01T01:23:28.978Z,82.60
2023-02-01T01:25:55.824Z,82.50
2023-02-01T01:28:23.159Z,82.40
2023-02-01T01:30:50.120Z,82.50
2023-02-01T01:33:16.980Z,82.40
2023-02-01T01:35:44.591Z,82.40
2023-02-01T01:38:12.490Z,82.40
2023-02-01T01:40:39.653Z,82.40
2023-02-01T01:43:17.796Z,82.40
2023-02-01T01:45:44.788Z,82.40
2023-02-01T01:48:16.840Z,83.10
2023-02-01T01:50:57.493Z,82.40
2023-02-01T01:53:29.036Z,82.40
2023-02-01T01:55:57.073Z,82.40
2023-02-01T01:58:27.227Z,82.40
2023-02-01T02:00:55.879Z,82.40
2023-02-01T02:03:24.725Z,82.40
2023-02-01T02:05:53.507Z,82.40
2023-02-01T02:08:21.430Z,82.40
2023-02-01T02:11:02.380Z,82.40
2023-02-01T02:13:31.448Z,82.40
2023-02-01T02:16:39.792Z,82.30
2023-02-01T02:19:21.580Z,82.30
2023-02-01T02:22:07.022Z,82.30
2023-02-01T02:24:56.433Z,82.20
2023-02-01T02:28:00.505Z,82.20
2023-02-01T02:30:42.481Z,82.20
2023-02-01T02:33:55.141Z,82.20
2023-02-01T02:36:36.574Z,82.20
2023-02-01T02:39:16.774Z,82.10
2023-02-01T02:42:15.679Z,82.10
2023-02-01T02:45:06.221Z,82.10
2023-02-01T02:48:11.821Z,82.30
2023-02-01T02:51:03.752Z,82.20
2023-02-01T02:54:08.161Z,82.30
2023-02-01T02:56:55.011Z,82.20
2023-02-01T02:59:48.436Z,82.10
2023-02-01T03:02:35.704Z,82.10
2023-02-01T03:05:02.621Z,82.10
2023-02-01T03:08:10.893Z,82.20
2023-02-01T03:10:52.303Z,82.20
2023-02-01T03:13:28.971Z,82.20
2023-02-01T03:16:17.951Z,82.20
2023-02-01T03:19:01.809Z,82.10
2023-02-01T03:21:38.813Z,82.20
2023-02-01T03:24:15.824Z,82.20
2023-02-01T03:26:48.190Z,82.20
2023-02-01T03:29:24.715Z,82.40
2023-02-01T03:31:51.904Z,82.20
2023-02-01T03:34:18.800Z,82.20
2023-02-01T03:37:03.548Z,82.20
2023-02-01T03:39:36.433Z,82.30
2023-02-01T03:42:12.606Z,82.30
2023-02-01T03:44:46.477Z,82.30
2023-02-01T03:47:23.582Z,82.30
2023-02-01T03:50:01.625Z,82.40
2023-02-01T03:52:49.853Z,82.40
2023-02-01T03:55:21.277Z,82.40
2023-02-01T03:57:56.566Z,82.40
2023-02-01T04:00:26.550Z,82.40
2023-02-01T04:02:54.253Z,82.40
2023-02-01T04:05:22.333Z,82.50
2023-02-01T04:07:49.531Z,82.50
2023-02-01T04:10:19.519Z,82.50
2023-02-01T04:12:46.711Z,82.60
2023-02-01T04:15:13.710Z,83.40
2023-02-01T04:17:42.311Z,82.60
2023-02-01T04:20:10.009Z,82.70
2023-02-01T04:22:39.404Z,82.70
2023-02-01T04:25:06.919Z,82.70
2023-02-01T04:27:33.681Z,82.80
2023-02-01T04:30:00.759Z,82.90
2023-02-01T04:32:27.552Z,82.70
2023-02-01T04:34:54.393Z,82.80
2023-02-01T04:37:21.188Z,82.90
2023-02-01T04:39:47.996Z,82.80
2023-02-01T04:42:14.902Z,82.80
2023-02-01T04:44:44.907Z,82.90
2023-02-01T04:47:11.703Z,83.00
2023-02-01T04:49:38.488Z,83.10
2023-02-01T04:52:07.695Z,83.10
2023-02-01T04:54:34.672Z,83.10
2023-02-01T04:57:03.793Z,83.00
2023-02-01T04:59:30.544Z,83.00
2023-02-01T05:01:57.267Z,82.90
2023-02-01T05:04:24.136Z,83.00
2023-02-01T05:06:50.867Z,83.00
2023-02-01T05:09:17.656Z,83.00
2023-02-01T05:12:03.055Z,83.00
2023-02-01T05:14:29.810Z,83.00
2023-02-01T05:16:56.718Z,83.00
2023-02-01T05:19:23.558Z,82.90
2023-02-01T05:21:50.323Z,82.90
2023-02-01T05:24:23.949Z,82.90
2023-02-01T05:26:50.977Z,82.80
2023-02-01T05:29:18.678Z,82.80
2023-02-01T05:31:47.078Z,82.80
2023-02-01T05:34:15.486Z,82.80
2023-02-01T05:36:42.655Z,82.80
2023-02-01T05:39:09.470Z,82.80
2023-02-01T05:41:36.307Z,82.70
2023-02-01T05:44:03.765Z,82.70
2023-02-01T05:46:30.605Z,82.80
2023-02-01T05:48:57.554Z,83.50
2023-02-01T05:51:24.506Z,82.70
2023-02-01T05:53:53.605Z,82.70
2023-02-01T05:56:20.413Z,82.70
2023-02-01T05:58:47.233Z,82.70
2023-02-01T06:01:13.941Z,82.60
2023-02-01T06:03:40.867Z,82.60
2023-02-01T06:06:07.691Z,82.60
2023-02-01T06:08:34.539Z,82.60
2023-02-01T06:11:05.771Z,82.60
2023-02-01T06:13:34.564Z,82.50
2023-02-01T06:16:03.445Z,82.60
2023-02-01T06:18:31.692Z,82.60
2023-02-01T06:21:03.157Z,82.50
2023-02-01T06:23:31.150Z,82.60
2023-02-01T06:26:07.011Z,82.60
2023-02-01T06:28:34.339Z,82.40
2023-02-01T06:31:08.333Z,82.50
2023-02-01T06:33:35.631Z,82.50
2023-02-01T06:36:05.628Z,82.30
2023-02-01T06:38:32.519Z,82.40
2023-02-01T06:40:59.412Z,82.40
2023-02-01T06:43:27.448Z,82.40
2023-02-01T06:46:02.663Z,82.30
2023-02-01T06:48:29.855Z,82.30
2023-02-01T06:50:56.651Z,82.30
2023-02-01T06:53:23.602Z,82.10
2023-02-01T06:56:00.777Z,82.20
2023-02-01T06:58:32.408Z,82.20
2023-02-01T07:00:59.793Z,82.20
2023-02-01T07:03:26.606Z,82.00
2023-02-01T07:05:57.379Z,82.10
2023-02-01T07:08:24.119Z,82.10
2023-02-01T07:10:50.866Z,82.10
2023-02-01T07:13:17.758Z,82.10
2023-02-01T07:15:44.540Z,82.10
2023-02-01T07:18:11.328Z,82.20
2023-02-01T07:20:38.397Z,82.20
2023-02-01T07:23:05.203Z,82.30
2023-02-01T07:25:32.112Z,82.20
2023-02-01T07:27:59.087Z,82.40
2023-02-01T07:30:27.083Z,82.40
2023-02-01T07:32:53.927Z,82.20
2023-02-01T07:35:20.764Z,82.20
2023-02-01T07:37:50.470Z,82.20
2023-02-01T07:40:17.276Z,82.30
2023-02-01T07:42:44.117Z,82.20
2023-02-01T07:45:20.830Z,82.30
2023-02-01T07:47:48.579Z,82.30
2023-02-01T07:50:15.671Z,82.40
2023-02-01T07:52:42.990Z,82.40
2023-02-01T07:55:10.411Z,82.40
2023-02-01T07:57:37.323Z,82.40
2023-02-01T08:00:25.936Z,83.30
2023-02-01T08:02:55.512Z,82.50
2023-02-01T08:05:23.536Z,82.60
2023-02-01T08:07:51.355Z,82.60
2023-02-01T08:10:20.334Z,82.60
2023-02-01T08:12:52.222Z,82.60
2023-02-01T08:15:19.750Z,82.60
2023-02-01T08:17:50.466Z,82.60
2023-02-01T08:20:18.705Z,82.70
2023-02-01T08:22:46.126Z,82.70
2023-02-01T08:25:16.201Z,82.70
2023-02-01T08:27:44.536Z,82.70
2023-02-01T08:30:13.031Z,82.60
2023-02-01T08:32:41.821Z,82.60
2023-02-01T08:35:12.089Z,82.70
2023-02-01T08:37:39.688Z,82.70
2023-02-01T08:40:07.611Z,82.60
2023-02-01T08:42:52.485Z,82.80
2023-02-01T08:45:21.136Z,83.00
2023-02-01T08:47:48.189Z,82.40
2023-02-01T08:50:15.560Z,82.70
2023-02-01T08:52:45.837Z,82.80
2023-02-01T08:55:13.298Z,82.40
2023-02-01T08:57:43.505Z,81.80
2023-02-01T09:00:16.282Z,81.70
2023-02-01T09:02:43.955Z,80.50
2023-02-01T09:05:13.037Z,80.10
2023-02-01T09:07:40.019Z,80.00
2023-02-01T09:10:07.513Z,80.00
2023-02-01T09:12:35.877Z,80.00
2023-02-01T09:15:03.177Z,79.90
2023-02-01T09:17:30.947Z,79.50
2023-02-01T09:19:59.077Z,79.60
2023-02-01T09:22:26.073Z,79.60
2023-02-01T09:24:55.103Z,79.50
2023-02-01T09:27:25.451Z,79.70
2023-02-01T09:29:53.832Z,79.80
2023-02-01T09:32:25.109Z,79.70
2023-02-01T09:34:53.598Z,80.00
2023-02-01T09:37:21.104Z,80.20
2023-02-01T09:39:48.495Z,80.20
2023-02-01T09:42:19.849Z,80.30
2023-02-01T09:44:58.678Z,80.20
2023-02-01T09:47:27.200Z,80.20
2023-02-01T09:50:26.742Z,80.20
2023-02-01T09:53:00.188Z,80.30
2023-02-01T09:55:49.450Z,81.30
2023-02-01T09:58:39.035Z,80.70
2023-02-01T10:01:16.200Z,80.50
2023-02-01T10:03:43.190Z,80.20
2023-02-01T10:06:24.899Z,79.90
2023-02-01T10:09:15.673Z,80.20
2023-02-01T10:12:01.514Z,79.90
2023-02-01T10:14:54.461Z,79.90
2023-02-01T10:17:56.807Z,79.80
2023-02-01T10:21:09.516Z,79.70
2023-02-01T10:23:51.990Z,80.10
2023-02-01T10:26:24.005Z,80.00
2023-02-01T10:28:58.924Z,80.00
2023-02-01T10:31:38.810Z,80.20
2023-02-01T10:34:17.304Z,80.00
2023-02-01T10:37:23.176Z,80.20
2023-02-01T10:40:01.195Z,80.20
2023-02-01T10:42:30.385Z,80.20
2023-02-01T10:45:05.435Z,80.30
2023-02-01T10:47:32.331Z,80.20
2023-02-01T10:50:17.642Z,79.90
2023-02-01T10:53:01.845Z,80.20
2023-02-01T10:55:41.830Z,80.20
2023-02-01T10:58:19.957Z,80.30
2023-02-01T11:00:54.615Z,80.20
2023-02-01T11:03:33.492Z,80.10
2023-02-01T11:06:01.463Z,80.10
2023-02-01T11:08:28.458Z,80.10
2023-02-01T11:11:07.253Z,80.10
2023-02-01T11:13:39.842Z,79.90
2023-02-01T11:16:07.529Z,79.90
2023-02-01T11:18:38.903Z,80.00
2023-02-01T11:21:07.531Z,80.10
2023-02-01T11:23:40.281Z,80.80
2023-02-01T11:26:26.019Z,80.00
2023-02-01T11:28:59.917Z,80.00
2023-02-01T11:31:28.360Z,80.00
2023-02-01T11:34:21.922Z,80.00
2023-02-01T11:36:50.690Z,80.20
2023-02-01T11:39:31.676Z,80.00
2023-02-01T11:42:18.286Z,80.00
2023-02-01T11:44:46.817Z,80.00
2023-02-01T11:47:32.462Z,80.00
2023-02-01T11:50:01.752Z,79.90
2023-02-01T11:52:34.431Z,79.90
2023-02-01T11:55:32.445Z,79.90
2023-02-01T11:58:29.859Z,79.70
2023-02-01T12:01:20.003Z,79.70
2023-02-01T12:04:01.975Z,79.70
2023-02-01T12:06:40.737Z,79.70
2023-02-01T12:09:31.981Z,79.80
2023-02-01T12:12:12.547Z,79.80
2023-02-01T12:15:10.001Z,79.80
2023-02-01T12:17:44.096Z,79.70
2023-02-01T12:20:22.659Z,79.70
2023-02-01T12:23:16.558Z,79.70
2023-02-01T12:25:55.243Z,79.80
2023-02-01T12:29:06.717Z,79.80
2023-02-01T12:31:59.943Z,79.60
2023-02-01T12:34:36.629Z,79.50
2023-02-01T12:37:29.023Z,79.50
2023-02-01T12:40:15.103Z,79.50
2023-02-01T12:43:10.725Z,79.50
2023-02-01T12:45:44.269Z,79.50
2023-02-01T12:48:16.978Z,79.10
2023-02-01T12:50:49.932Z,79.50
2023-02-01T12:53:30.020Z,79.60
2023-02-01T12:56:02.365Z,79.50
2023-02-01T12:58:41.124Z,79.20
2023-02-01T13:01:13.819Z,79.30
2023-02-01T13:04:18.741Z,79.10
2023-02-01T13:06:54.067Z,79.30
2023-02-01T13:09:27.420Z,79.20
2023-02-01T13:11:59.626Z,79.50
2023-02-01T13:14:29.136Z,79.10
2023-02-01T13:17:18.004Z,79.10
2023-02-01T13:20:04.204Z,79.20
2023-02-01T13:22:42.335Z,78.90
2023-02-01T13:25:17.444Z,78.70
2023-02-01T13:27:44.581Z,79.00
2023-02-01T13:30:31.416Z,78.90
2023-02-01T13:33:55.681Z,79.00
2023-02-01T13:36:36.875Z,78.40
2023-02-01T13:39:27.977Z,78.70
2023-02-01T13:41:54.719Z,78.40
2023-02-01T13:44:27.279Z,78.10
2023-02-01T13:47:01.472Z,78.20
2023-02-01T13:49:32.338Z,78.20
2023-02-01T13:52:00.536Z,78.40
2023-02-01T13:54:34.205Z,78.20
2023-02-01T13:57:02.499Z,78.10
2023-02-01T13:59:51.867Z,78.20
2023-02-01T14:02:37.397Z,78.20
2023-02-01T14:05:35.472Z,77.50
2023-02-01T14:08:13.664Z,77.60
2023-02-01T14:10:50.232Z,78.00
2023-02-01T14:13:55.536Z,78.00
2023-02-01T14:16:23.985Z,78.00
2023-02-01T14:18:58.668Z,78.20
2023-02-01T14:21:33.061Z,78.20
2023-02-01T14:24:03.210Z,78.30
2023-02-01T14:26:36.080Z,78.50
2023-02-01T14:29:20.320Z,78.00
2023-02-01T14:32:09.265Z,77.70
2023-02-01T14:34:47.084Z,78.10
2023-02-01T14:37:34.185Z,78.20
2023-02-01T14:40:25.029Z,78.20
2023-02-01T14:42:57.953Z,78.00
2023-02-01T14:45:28.507Z,78.20
2023-02-01T14:48:15.208Z,78.10
2023-02-01T14:50:46.556Z,78.20
2023-02-01T14:53:13.734Z,78.10
2023-02-01T14:56:07.332Z,78.20
2023-02-01T14:58:55.234Z,78.20
2023-02-01T15:01:35.067Z,78.30
2023-02-01T15:04:10.429Z,78.20
2023-02-01T15:07:02.852Z,78.40
2023-02-01T15:09:31.070Z,78.40
2023-02-01T15:12:12.793Z,78.50
2023-02-01T15:14:41.290Z,78.40
2023-02-01T15:17:26.065Z,78.50
2023-02-01T15:20:00.813Z,78.50
2023-02-01T15:22:29.388Z,78.60
2023-02-01T15:25:00.696Z,78.50
2023-02-01T15:27:29.567Z,78.60
2023-02-01T15:30:20.109Z,78.60
2023-02-01T15:32:47.206Z,78.70
2023-02-01T15:35:41.587Z,78.60
2023-02-01T15:38:28.127Z,78.50
2023-02-01T15:40:59.132Z,78.50
2023-02-01T15:43:27.009Z,78.70
2023-02-01T15:45:58.110Z,78.70
2023-02-01T15:48:27.690Z,78.70
2023-02-01T15:50:56.622Z,78.70
2023-02-01T15:53:30.264Z,78.50
2023-02-01T15:56:00.792Z,78.60
2023-02-01T15:58:28.794Z,78.70
2023-02-01T16:01:05.662Z,78.70
2023-02-01T16:03:37.884Z,78.70
2023-02-01T16:06:09.287Z,78.80
2023-02-01T16:08:38.029Z,78.50
2023-02-01T16:11:11.006Z,78.60
2023-02-01T16:13:37.804Z,78.60
2023-02-01T16:16:09.044Z,78.70
2023-02-01T16:18:36.112Z,78.60
2023-02-01T16:21:03.067Z,78.70
2023-02-01T16:23:31.553Z,78.80
2023-02-01T16:25:59.285Z,78.80
2023-02-01T16:28:28.999Z,78.80
2023-02-01T16:30:56.039Z,78.90
2023-02-01T16:33:26.559Z,78.80
2023-02-01T16:35:56.965Z,78.90
2023-02-01T16:38:24.685Z,79.00
2023-02-01T16:40:54.063Z,79.00
2023-02-01T16:43:27.056Z,79.00
2023-02-01T16:45:56.585Z,79.00
2023-02-01T16:48:29.382Z,78.90
2023-02-01T16:51:01.945Z,79.00
2023-02-01T16:53:32.909Z,79.00
2023-02-01T16:56:01.689Z,79.00
2023-02-01T16:58:28.560Z,79.90
2023-02-01T17:00:55.954Z,79.00
2023-02-01T17:03:23.502Z,79.00
2023-02-01T17:05:54.152Z,79.00
2023-02-01T17:08:37.109Z,79.10
2023-02-01T17:11:05.594Z,79.20
2023-02-01T17:13:32.928Z,79.20
2023-02-01T17:16:13.617Z,79.20
2023-02-01T17:18:40.624Z,79.30
2023-02-01T17:21:07.768Z,79.20
2023-02-01T17:23:35.201Z,79.20
2023-02-01T17:26:03.490Z,79.20
2023-02-01T17:28:30.719Z,79.30
2023-02-01T17:30:57.749Z,79.30
2023-02-01T17:33:36.243Z,79.30
2023-02-01T17:36:07.147Z,79.30
2023-02-01T17:38:37.050Z,79.30
2023-02-01T17:41:04.300Z,79.30
2023-02-01T17:43:31.233Z,79.30
2023-02-01T17:46:06.159Z,79.30
2023-02-01T17:48:33.098Z,79.40
2023-02-01T17:51:00.917Z,79.40
2023-02-01T17:53:29.304Z,79.50
2023-02-01T17:55:58.368Z,79.50
2023-02-01T17:58:26.623Z,79.50
2023-02-01T18:00:54.531Z,79.50
2023-02-01T18:03:27.083Z,79.50
2023-02-01T18:05:59.402Z,79.50
2023-02-01T18:08:33.399Z,79.60
2023-02-01T18:11:01.747Z,79.60
2023-02-01T18:13:32.977Z,79.70
2023-02-01T18:16:00.072Z,79.60
2023-02-01T18:18:28.922Z,79.70
2023-02-01T18:20:57.845Z,79.70
2023-02-01T18:23:24.707Z,79.60
2023-02-01T18:25:52.774Z,79.60
2023-02-01T18:28:20.692Z,79.70
2023-02-01T18:30:51.071Z,79.70
2023-02-01T18:33:22.627Z,79.70
2023-02-01T18:35:49.914Z,79.70
2023-02-01T18:38:16.987Z,80.40
2023-02-01T18:40:50.135Z,79.70
2023-02-01T18:43:17.369Z,79.70
2023-02-01T18:45:45.660Z,79.70
2023-02-01T18:48:14.614Z,79.70
2023-02-01T18:50:45.436Z,79.70
2023-02-01T18:53:20.000Z,79.60
2023-02-01T18:55:48.074Z,79.60
2023-02-01T18:58:16.980Z,79.70
2023-02-01T19:00:45.162Z,79.70
2023-02-01T19:03:13.866Z,79.70
2023-02-01T19:05:41.309Z,79.70
2023-02-01T19:08:09.156Z,79.70
2023-02-01T19:10:38.735Z,79.70
2023-02-01T19:13:08.367Z,79.70
2023-02-01T19:15:40.432Z,79.70
2023-02-01T19:18:09.256Z,80.50
2023-02-01T19:20:41.461Z,79.70
2023-02-01T19:23:09.259Z,79.80
2023-02-01T19:25:43.295Z,79.80
2023-02-01T19:28:10.277Z,79.80
2023-02-01T19:30:40.245Z,79.80
2023-02-01T19:33:07.321Z,79.70
2023-02-01T19:35:34.444Z,79.80
2023-02-01T19:38:01.352Z,79.70
2023-02-01T19:40:28.483Z,79.70
2023-02-01T19:42:55.651Z,79.80
2023-02-01T19:45:23.142Z,79.80
2023-02-01T19:47:50.132Z,79.80
2023-02-01T19:50:22.321Z,79.90
2023-02-01T19:52:49.682Z,79.80
2023-02-01T19:55:16.534Z,79.80
2023-02-01T19:57:43.892Z,79.80
2023-02-01T20:00:13.584Z,79.80
2023-02-01T20:02:40.637Z,79.80
2023-02-01T20:05:11.737Z,79.80
2023-02-01T20:07:38.798Z,79.80
2023-02-01T20:10:06.654Z,79.80
2023-02-01T20:12:33.924Z,79.80
2023-02-01T20:15:00.826Z,80.00
2023-02-01T20:17:27.753Z,80.00
2023-02-01T20:19:54.826Z,80.00
2023-02-01T20:22:22.208Z,80.00
2023-02-01T20:24:48.960Z,80.80
2023-02-01T20:27:17.476Z,80.00
2023-02-01T20:29:44.690Z,80.00
2023-02-01T20:32:11.485Z,80.00
2023-02-01T20:34:38.246Z,80.00
2023-02-01T20:37:06.264Z,80.00
2023-02-01T20:39:33.168Z,80.00
2023-02-01T20:42:00.074Z,80.00
2023-02-01T20:44:26.858Z,80.00
2023-02-01T20:46:53.866Z,80.00
2023-02-01T20:49:20.785Z,80.00
2023-02-01T20:51:47.767Z,80.10
2023-02-01T20:54:14.519Z,80.10
2023-02-01T20:56:43.926Z,80.10
2023-02-01T20:59:44.881Z,80.10
2023-02-01T21:02:14.875Z,80.00
2023-02-01T21:04:41.812Z,80.10
2023-02-01T21:07:08.635Z,80.10
2023-02-01T21:09:40.888Z,80.10
2023-02-01T21:12:07.683Z,80.20
2023-02-01T21:14:34.716Z,80.20
2023-02-01T21:17:01.666Z,80.20
2023-02-01T21:19:42.754Z,80.20
2023-02-01T21:22:13.633Z,80.20
2023-02-01T21:24:42.224Z,80.20
2023-02-01T21:27:10.096Z,80.20
2023-02-01T21:29:36.985Z,80.30
2023-02-01T21:32:04.320Z,80.30
2023-02-01T21:34:31.133Z,80.30
2023-02-01T21:37:01.002Z,80.30
2023-02-01T21:39:29.080Z,80.30
2023-02-01T21:42:16.745Z,80.30
2023-02-01T21:44:46.270Z,80.40
2023-02-01T21:47:14.002Z,80.50
2023-02-01T21:49:41.892Z,80.50
2023-02-01T21:52:09.193Z,80.50
2023-02-01T21:54:36.214Z,80.60
2023-02-01T21:57:03.121Z,80.50
2023-02-01T21:59:29.839Z,80.60
2023-02-01T22:01:56.614Z,80.60
2023-02-01T22:04:23.440Z,80.60
2023-02-01T22:06:50.169Z,80.60
2023-02-01T22:09:20.076Z,80.60
2023-02-01T22:11:47.210Z,80.60
2023-02-01T22:14:14.607Z,80.60
2023-02-01T22:16:44.969Z,80.50
2023-02-01T22:19:12.672Z,80.50
2023-02-01T22:21:42.271Z,80.50
2023-02-01T22:24:11.613Z,80.60
2023-02-01T22:26:39.682Z,80.70
2023-02-01T22:29:07.705Z,80.70
2023-02-01T22:31:34.861Z,80.80
2023-02-01T22:34:04.565Z,80.80
2023-02-01T22:36:31.827Z,80.70
2023-02-01T22:38:58.879Z,80.80
2023-02-01T22:41:25.626Z,80.80
2023-02-01T22:43:52.441Z,81.60
2023-02-01T22:46:22.736Z,80.70
2023-02-01T22:48:49.721Z,80.80
2023-02-01T22:51:25.254Z,80.80
2023-02-01T22:53:58.652Z,80.90
2023-02-01T22:56:36.665Z,80.90
2023-02-01T22:59:06.670Z,81.00
2023-02-01T23:01:34.528Z,80.90
2023-02-01T23:04:04.009Z,81.00
2023-02-01T23:06:31.728Z,81.00
2023-02-01T23:09:00.899Z,81.00
2023-02-01T23:11:28.668Z,81.00
2023-02-01T23:13:56.109Z,81.00
2023-02-01T23:16:23.310Z,81.10
2023-02-01T23:18:50.511Z,81.10
2023-02-01T23:21:20.298Z,81.10
2023-02-01T23:23:52.190Z,81.20
2023-02-01T23:26:19.825Z,81.20
2023-02-01T23:28:47.205Z,81.30
2023-02-01T23:31:14.840Z,81.20
2023-02-01T23:33:44.076Z,81.40
2023-02-01T23:36:17.878Z,81.40
2023-02-01T23:38:45.745Z,81.40
2023-02-01T23:41:14.415Z,81.40
2023-02-01T23:44:00.263Z,81.50
2023-02-01T23:46:42.361Z,81.50
2023-02-01T23:49:09.615Z,81.50
2023-02-01T23:51:37.034Z,81.50
2023-02-01T23:54:04.536Z,81.50
2023-02-01T23:56:40.829Z,81.60
2023-02-01T23:59:15.656Z,81.70
